createdAt,value
2022-08-01T00:00:57.294Z,100612.19
2022-08-01T00:03:25.219Z,100624.69
2022-08-01T00:05:53.205Z,100619.31
2022-08-01T00:08:21.123Z,100613.91
2022-08-01T00:10:50.441Z,100626.53
2022-08-01T00:13:18.539Z,100619.53
2022-08-01T00:15:54.308Z,100625.78
2022-08-01T00:18:22.864Z,100621.34
2022-08-01T00:20:50.855Z,100621.56
2022-08-01T00:23:18.751Z,100612.75
2022-08-01T00:25:46.722Z,100616.44
2022-08-01T00:28:15.973Z,100613.88
2022-08-01T00:30:43.842Z,100608.59
2022-08-01T00:33:11.676Z,100607.88
2022-08-01T00:35:39.571Z,100602.47
2022-08-01T00:38:07.443Z,100601.59
2022-08-01T00:40:35.401Z,100599.84
2022-08-01T00:43:03.363Z,100592.78
2022-08-01T00:45:32.581Z,100592.84
2022-08-01T00:48:00.425Z,100591.97
2022-08-01T00:50:28.472Z,100585.78
2022-08-01T00:52:57.168Z,100592.25
2022-08-01T00:55:25.341Z,100589.66
2022-08-01T00:58:04.605Z,100584.34
2022-08-01T01:00:53.283Z,100581.75
2022-08-01T01:03:26.352Z,100579.19
2022-08-01T01:06:09.851Z,100579.25
2022-08-01T01:08:43.004Z,100582.13
2022-08-01T01:11:15.710Z,100574.03
2022-08-01T01:13:49.601Z,100575.88
2022-08-01T01:16:22.403Z,100570.53
2022-08-01T01:18:53.486Z,100580.50
2022-08-01T01:21:37.421Z,100567.03
2022-08-01T01:24:19.130Z,100573.31
2022-08-01T01:26:54.519Z,100579.81
2022-08-01T01:29:29.144Z,100577.22
2022-08-01T01:32:00.974Z,100576.38
2022-08-01T01:34:31.163Z,100578.16
2022-08-01T01:37:01.453Z,100578.09
2022-08-01T01:39:31.885Z,100577.19
2022-08-01T01:42:00.849Z,100573.44
2022-08-01T01:44:31.929Z,100572.53
2022-08-01T01:47:01.616Z,100576.09
2022-08-01T01:49:32.097Z,100567.03
2022-08-01T01:52:02.916Z,100568.72
2022-08-01T01:54:33.262Z,100575.94
2022-08-01T01:57:03.934Z,100570.53
2022-08-01T01:59:36.599Z,100563.38
2022-08-01T02:02:06.894Z,100569.69
2022-08-01T02:04:37.357Z,100574.16
2022-08-01T02:07:06.364Z,100567.94
2022-08-01T02:09:35.933Z,100575.13
2022-08-01T02:12:07.942Z,100582.31
2022-08-01T02:14:41.112Z,100581.31
2022-08-01T02:17:12.579Z,100587.50
2022-08-01T02:19:41.330Z,100577.69
2022-08-01T02:22:13.168Z,100580.44
2022-08-01T02:24:51.017Z,100577.75
2022-08-01T02:27:26.671Z,100583.09
2022-08-01T02:30:01.459Z,100581.19
2022-08-01T02:32:34.005Z,100582.13
2022-08-01T02:35:03.723Z,100585.78
2022-08-01T02:37:35.684Z,100583.00
2022-08-01T02:40:04.084Z,100583.88
2022-08-01T02:42:33.713Z,100589.22
2022-08-01T02:45:06.752Z,100586.59
2022-08-01T02:47:35.623Z,100589.34
2022-08-01T02:50:04.199Z,100574.91
2022-08-01T02:52:33.708Z,100581.25
2022-08-01T02:55:02.723Z,100580.44
2022-08-01T02:57:41.474Z,100577.81
2022-08-01T03:00:23.603Z,100584.94
2022-08-01T03:02:55.932Z,100590.31
2022-08-01T03:05:26.094Z,100592.19
2022-08-01T03:07:56.271Z,100590.41
2022-08-01T03:10:32.755Z,100591.28
2022-08-01T03:13:03.251Z,100589.47
2022-08-01T03:15:35.516Z,100595.72
2022-08-01T03:18:04.561Z,100606.50
2022-08-01T03:20:34.849Z,100607.41
2022-08-01T03:23:06.488Z,100607.41
2022-08-01T03:25:36.741Z,100614.69
2022-08-01T03:28:06.796Z,100612.13
2022-08-01T03:30:38.897Z,100618.44
2022-08-01T03:33:06.888Z,100620.28
2022-08-01T03:35:38.949Z,100623.91
2022-08-01T03:38:17.202Z,100615.88
2022-08-01T03:40:50.755Z,100629.34
2022-08-01T03:43:22.525Z,100624.91
2022-08-01T03:45:54.712Z,100619.53
2022-08-01T03:48:30.793Z,100627.53
2022-08-01T03:51:01.429Z,100620.34
2022-08-01T03:53:32.895Z,100618.44
2022-08-01T03:56:03.628Z,100612.13
2022-08-01T03:58:31.780Z,100622.00
2022-08-01T04:01:01.194Z,100613.00
2022-08-01T04:03:30.045Z,100613.06
2022-08-01T04:05:57.897Z,100612.94
2022-08-01T04:08:29.927Z,100609.25
2022-08-01T04:10:59.514Z,100611.88
2022-08-01T04:13:29.387Z,100610.09
2022-08-01T04:16:07.579Z,100618.09
2022-08-01T04:18:36.440Z,100612.72
2022-08-01T04:21:04.290Z,100611.88
2022-08-01T04:23:33.615Z,100626.34
2022-08-01T04:26:05.102Z,100622.78
2022-08-01T04:28:36.055Z,100615.56
2022-08-01T04:31:08.335Z,100627.28
2022-08-01T04:33:37.568Z,100621.00
2022-08-01T04:36:08.533Z,100628.16
2022-08-01T04:38:38.681Z,100631.69
2022-08-01T04:41:09.872Z,100629.09
2022-08-01T04:43:38.124Z,100624.63
2022-08-01T04:46:08.110Z,100624.63
2022-08-01T04:48:39.553Z,100625.53
2022-08-01T04:51:14.194Z,100636.25
2022-08-01T04:53:42.133Z,100635.25
2022-08-01T04:56:10.334Z,100634.41
2022-08-01T04:58:38.173Z,100634.34
2022-08-01T05:01:07.477Z,100634.28
2022-08-01T05:03:38.834Z,100638.75
2022-08-01T05:06:07.363Z,100645.06
2022-08-01T05:08:37.467Z,100646.78
2022-08-01T05:11:06.149Z,100642.19
2022-08-01T05:13:34.141Z,100648.34
2022-08-01T05:16:04.630Z,100646.47
2022-08-01T05:18:33.911Z,100647.34
2022-08-01T05:21:03.085Z,100650.84
2022-08-01T05:23:41.957Z,100639.94
2022-08-01T05:26:10.764Z,100654.22
2022-08-01T05:28:38.602Z,100646.19
2022-08-01T05:31:06.464Z,100649.84
2022-08-01T05:33:35.664Z,100658.00
2022-08-01T05:36:03.519Z,100661.56
2022-08-01T05:38:31.616Z,100661.63
2022-08-01T05:40:59.451Z,100659.06
2022-08-01T05:43:29.154Z,100660.88
2022-08-01T05:45:57.299Z,100658.19
2022-08-01T05:48:25.164Z,100668.09
2022-08-01T05:50:58.685Z,100668.22
2022-08-01T05:53:27.224Z,100667.34
2022-08-01T05:55:55.061Z,100667.34
2022-08-01T05:58:22.932Z,100670.84
2022-08-01T06:00:50.820Z,100668.91
2022-08-01T06:03:18.653Z,100669.75
2022-08-01T06:05:46.490Z,100675.84
2022-08-01T06:08:15.641Z,100672.16
2022-08-01T06:10:43.609Z,100674.63
2022-08-01T06:13:11.560Z,100673.44
2022-08-01T06:15:39.430Z,100675.81
2022-08-01T06:18:07.259Z,100680.94
2022-08-01T06:20:35.086Z,100684.25
2022-08-01T06:23:11.310Z,100688.56
2022-08-01T06:25:54.312Z,100693.75
2022-08-01T06:28:22.301Z,100690.09
2022-08-01T06:30:50.198Z,100698.94
2022-08-01T06:33:18.256Z,100696.94
2022-08-01T06:35:46.172Z,100695.91
2022-08-01T06:38:14.016Z,100697.72
2022-08-01T06:40:41.896Z,100708.72
2022-08-01T06:43:12.547Z,100711.41
2022-08-01T06:45:40.543Z,100711.28
2022-08-01T06:48:08.517Z,100711.34
2022-08-01T06:50:37.819Z,100723.91
2022-08-01T06:53:06.115Z,100705.88
2022-08-01T06:55:34.063Z,100717.41
2022-08-01T06:58:01.933Z,100715.53
2022-08-01T07:00:31.232Z,100709.94
2022-08-01T07:03:00.854Z,100709.81
2022-08-01T07:05:31.898Z,100718.53
2022-08-01T07:08:00.218Z,100718.25
2022-08-01T07:10:28.208Z,100727.88
2022-08-01T07:12:56.144Z,100728.69
2022-08-01T07:15:27.526Z,100736.63
2022-08-01T07:17:58.002Z,100729.50
2022-08-01T07:20:25.964Z,100739.19
2022-08-01T07:22:54.268Z,100737.47
2022-08-01T07:25:24.528Z,100738.34
2022-08-01T07:27:52.380Z,100739.13
2022-08-01T07:30:20.234Z,100734.59
2022-08-01T07:32:48.207Z,100737.09
2022-08-01T07:35:17.432Z,100735.13
2022-08-01T07:37:49.091Z,100743.16
2022-08-01T07:40:19.197Z,100746.59
2022-08-01T07:42:47.789Z,100743.50
2022-08-01T07:45:16.222Z,100749.19
2022-08-01T07:47:44.230Z,100743.31
2022-08-01T07:50:13.732Z,100746.66
2022-08-01T07:52:43.489Z,100743.72
2022-08-01T07:55:11.895Z,100748.09
2022-08-01T07:57:44.742Z,100749.81
2022-08-01T08:00:14.075Z,100751.66
2022-08-01T08:02:42.041Z,100757.22
2022-08-01T08:05:10.382Z,100753.88
2022-08-01T08:07:40.316Z,100748.47
2022-08-01T08:10:10.701Z,100766.50
2022-08-01T08:12:38.936Z,100765.78
2022-08-01T08:15:08.116Z,100771.31
2022-08-01T08:17:36.835Z,100773.72
2022-08-01T08:20:09.195Z,100773.47
2022-08-01T08:22:38.101Z,100769.69
2022-08-01T08:25:07.621Z,100780.09
2022-08-01T08:27:37.850Z,100779.38
2022-08-01T08:30:08.623Z,100781.38
2022-08-01T08:32:37.630Z,100778.88
2022-08-01T08:35:07.093Z,100788.09
2022-08-01T08:37:39.139Z,100778.38
2022-08-01T08:40:12.194Z,100780.06
2022-08-01T08:42:42.922Z,100783.47
2022-08-01T08:45:12.540Z,100779.44
2022-08-01T08:47:43.748Z,100781.72
2022-08-01T08:50:11.799Z,100781.31
2022-08-01T08:52:42.187Z,100791.06
2022-08-01T08:55:11.928Z,100784.75
2022-08-01T08:57:45.285Z,100801.41
2022-08-01T09:00:15.148Z,100792.91
2022-08-01T09:02:44.446Z,100808.19
2022-08-01T09:05:18.906Z,100805.47
2022-08-01T09:07:47.525Z,100810.28
2022-08-01T09:10:15.609Z,100818.75
2022-08-01T09:13:04.410Z,100822.81
2022-08-01T09:15:41.066Z,100823.16
2022-08-01T09:18:09.035Z,100825.94
2022-08-01T09:20:37.006Z,100829.88
2022-08-01T09:23:05.562Z,100828.97
2022-08-01T09:25:52.539Z,100828.97
2022-08-01T09:28:30.053Z,100829.44
2022-08-01T09:30:58.289Z,100833.44
2022-08-01T09:33:26.577Z,100830.88
2022-08-01T09:35:58.516Z,100829.28
2022-08-01T09:38:28.460Z,100838.75
2022-08-01T09:40:58.360Z,100836.31
2022-08-01T09:43:29.636Z,100837.38
2022-08-01T09:45:59.687Z,100842.94
2022-08-01T09:48:29.581Z,100842.94
2022-08-01T09:51:04.516Z,100848.34
2022-08-01T09:53:47.337Z,100851.09
2022-08-01T09:56:20.106Z,100848.25
2022-08-01T09:58:59.444Z,100854.03
2022-08-01T10:01:36.642Z,100851.78
2022-08-01T10:04:09.756Z,100856.72
2022-08-01T10:06:38.652Z,100860.09
2022-08-01T10:09:06.572Z,100862.28
2022-08-01T10:11:37.768Z,100855.41
2022-08-01T10:14:09.153Z,100861.09
2022-08-01T10:16:38.327Z,100845.34
2022-08-01T10:19:14.856Z,100846.44
2022-08-01T10:21:58.210Z,100846.75
2022-08-01T10:24:29.329Z,100840.50
2022-08-01T10:27:05.801Z,100843.13
2022-08-01T10:29:46.731Z,100839.97
2022-08-01T10:32:31.815Z,100846.56
2022-08-01T10:35:06.688Z,100859.41
2022-08-01T10:37:51.618Z,100850.47
2022-08-01T10:40:37.027Z,100847.59
2022-08-01T10:43:05.357Z,100852.59
2022-08-01T10:45:35.411Z,100851.59
2022-08-01T10:48:08.209Z,100849.50
2022-08-01T10:50:43.019Z,100846.88
2022-08-01T10:53:16.123Z,100843.09
2022-08-01T10:55:52.536Z,100844.56
2022-08-01T10:58:29.923Z,100849.13
2022-08-01T11:01:25.582Z,100847.03
2022-08-01T11:04:16.064Z,100849.94
2022-08-01T11:07:06.855Z,100852.28
2022-08-01T11:09:45.968Z,100847.59
2022-08-01T11:12:24.552Z,100847.75
2022-08-01T11:15:32.243Z,100841.94
2022-08-01T11:18:03.395Z,100842.81
2022-08-01T11:20:34.623Z,100850.19
2022-08-01T11:23:25.897Z,100851.94
2022-08-01T11:26:17.452Z,100859.44
2022-08-01T11:29:17.902Z,100860.13
2022-08-01T11:31:37.476Z,100864.16
2022-08-01T11:34:08.254Z,100865.03
2022-08-01T11:36:58.525Z,100862.16
2022-08-01T11:39:24.466Z,100861.25
2022-08-01T11:41:53.703Z,100867.38
2022-08-01T11:44:34.502Z,100871.75
2022-08-01T11:47:09.982Z,100877.78
2022-08-01T11:50:02.422Z,100874.66
2022-08-01T11:52:34.566Z,100878.72
2022-08-01T11:55:09.823Z,100868.34
2022-08-01T11:57:38.943Z,100872.84
2022-08-01T12:00:15.298Z,100868.16
2022-08-01T12:02:46.113Z,100880.28
2022-08-01T12:05:21.610Z,100870.22
2022-08-01T12:07:54.269Z,100874.47
2022-08-01T12:10:23.833Z,100881.66
2022-08-01T12:12:53.680Z,100870.56
2022-08-01T12:15:24.096Z,100867.47
2022-08-01T12:17:59.334Z,100859.81
2022-08-01T12:20:31.704Z,100866.13
2022-08-01T12:23:03.030Z,100866.19
2022-08-01T12:25:31.235Z,100873.31
2022-08-01T12:28:02.580Z,100867.78
2022-08-01T12:30:32.666Z,100876.81
2022-08-01T12:33:00.690Z,100871.09
2022-08-01T12:35:32.053Z,100867.88
2022-08-01T12:38:02.369Z,100864.53
2022-08-01T12:40:31.877Z,100865.53
2022-08-01T12:43:01.303Z,100865.63
2022-08-01T12:45:30.910Z,100861.75
2022-08-01T12:48:01.779Z,100864.47
2022-08-01T12:50:32.812Z,100872.38
2022-08-01T12:53:02.989Z,100884.94
2022-08-01T12:55:33.963Z,100876.91
2022-08-01T12:58:07.082Z,100872.53
2022-08-01T13:00:35.817Z,100883.00
2022-08-01T13:03:06.327Z,100879.59
2022-08-01T13:05:47.179Z,100884.84
2022-08-01T13:08:16.715Z,100878.97
2022-08-01T13:10:45.910Z,100885.59
2022-08-01T13:13:22.357Z,100876.19
2022-08-01T13:16:06.114Z,100878.44
2022-08-01T13:18:35.491Z,100882.50
2022-08-01T13:21:12.896Z,100873.72
2022-08-01T13:24:01.746Z,100884.28
2022-08-01T13:26:42.939Z,100870.06
2022-08-01T13:29:12.543Z,100876.75
2022-08-01T13:31:41.618Z,100882.19
2022-08-01T13:34:10.344Z,100875.53
2022-08-01T13:36:44.209Z,100881.22
2022-08-01T13:39:34.279Z,100880.78
2022-08-01T13:42:02.103Z,100874.97
2022-08-01T13:44:30.862Z,100869.69
2022-08-01T13:46:58.761Z,100871.28
2022-08-01T13:49:26.842Z,100875.06
2022-08-01T13:52:08.252Z,100861.16
2022-08-01T13:54:38.117Z,100868.09
2022-08-01T13:57:06.136Z,100871.25
2022-08-01T13:59:34.022Z,100869.09
2022-08-01T14:02:01.880Z,100870.44
2022-08-01T14:04:29.977Z,100871.84
2022-08-01T14:06:57.800Z,100873.91
2022-08-01T14:09:32.521Z,100887.72
2022-08-01T14:12:00.646Z,100882.78
2022-08-01T14:14:28.763Z,100898.56
2022-08-01T14:16:56.596Z,100899.06
2022-08-01T14:19:37.608Z,100891.38
2022-08-01T14:22:07.982Z,100890.13
2022-08-01T14:24:38.985Z,100890.19
2022-08-01T14:27:08.780Z,100890.09
2022-08-01T14:30:02.074Z,100899.41
2022-08-01T14:32:28.635Z,100891.50
2022-08-01T14:34:57.030Z,100885.28
2022-08-01T14:37:28.576Z,100894.38
2022-08-01T14:39:58.950Z,100891.91
2022-08-01T14:42:26.906Z,100897.03
2022-08-01T14:44:54.752Z,100895.16
2022-08-01T14:47:22.753Z,100899.03
2022-08-01T14:49:51.558Z,100905.16
2022-08-01T14:52:20.553Z,100906.53
2022-08-01T14:54:48.433Z,100906.88
2022-08-01T14:57:19.273Z,100914.50
2022-08-01T14:59:47.308Z,100905.91
2022-08-01T15:02:18.115Z,100918.22
2022-08-01T15:04:46.250Z,100914.72
2022-08-01T15:07:14.481Z,100900.03
2022-08-01T15:09:43.016Z,100907.03
2022-08-01T15:12:11.665Z,100915.81
2022-08-01T15:14:49.663Z,100913.59
2022-08-01T15:17:17.697Z,100915.59
2022-08-01T15:19:45.545Z,100916.53
2022-08-01T15:22:13.517Z,100916.53
2022-08-01T15:24:41.504Z,100923.00
2022-08-01T15:27:09.699Z,100927.13
2022-08-01T15:29:38.177Z,100922.22
2022-08-01T15:32:09.320Z,100925.44
2022-08-01T15:34:38.286Z,100929.25
2022-08-01T15:37:09.500Z,100927.50
2022-08-01T15:39:37.598Z,100927.09
2022-08-01T15:42:09.027Z,100936.16
2022-08-01T15:44:37.377Z,100928.31
2022-08-01T15:47:07.622Z,100929.53
2022-08-01T15:49:37.128Z,100926.00
2022-08-01T15:52:05.924Z,100924.63
2022-08-01T15:54:34.396Z,100939.59
2022-08-01T15:57:02.565Z,100934.38
2022-08-01T15:59:30.769Z,100943.19
2022-08-01T16:01:58.809Z,100940.22
2022-08-01T16:04:30.045Z,100926.06
2022-08-01T16:06:58.531Z,100928.03
2022-08-01T16:09:26.824Z,100931.63
2022-08-01T16:11:54.981Z,100929.50
2022-08-01T16:14:22.879Z,100931.22
2022-08-01T16:16:50.744Z,100930.78
2022-08-01T16:19:19.505Z,100937.19
2022-08-01T16:21:49.721Z,100928.44
2022-08-01T16:24:18.024Z,100925.56
2022-08-01T16:26:45.985Z,100935.91
2022-08-01T16:29:13.856Z,100931.66
2022-08-01T16:31:58.577Z,100931.19
2022-08-01T16:34:29.646Z,100934.00
2022-08-01T16:36:58.883Z,100933.75
2022-08-01T16:39:27.204Z,100929.00
2022-08-01T16:42:05.496Z,100933.97
2022-08-01T16:44:34.556Z,100928.03
2022-08-01T16:47:03.909Z,100933.81
2022-08-01T16:49:34.823Z,100933.72
2022-08-01T16:52:05.210Z,100929.16
2022-08-01T16:54:33.429Z,100935.00
2022-08-01T16:57:08.020Z,100925.34
2022-08-01T16:59:41.367Z,100929.16
2022-08-01T17:02:10.649Z,100926.91
2022-08-01T17:04:38.538Z,100934.66
2022-08-01T17:07:08.202Z,100943.13
2022-08-01T17:09:41.175Z,100942.56
2022-08-01T17:12:11.957Z,100936.03
2022-08-01T17:14:40.754Z,100942.59
2022-08-01T17:17:09.680Z,100937.34
2022-08-01T17:19:37.871Z,100936.00
2022-08-01T17:22:07.120Z,100938.03
2022-08-01T17:24:35.269Z,100938.38
2022-08-01T17:27:03.266Z,100938.06
2022-08-01T17:29:43.458Z,100937.53
2022-08-01T17:32:13.536Z,100939.75
2022-08-01T17:34:41.434Z,100937.38
2022-08-01T17:37:11.153Z,100936.09
2022-08-01T17:39:40.157Z,100946.34
2022-08-01T17:42:08.995Z,100936.91
2022-08-01T17:44:36.887Z,100938.34
2022-08-01T17:47:06.027Z,100934.16
2022-08-01T17:49:53.736Z,100938.16
2022-08-01T17:52:29.530Z,100939.44
2022-08-01T17:54:58.485Z,100949.88
2022-08-01T17:57:26.834Z,100948.47
2022-08-01T17:59:55.193Z,100948.00
2022-08-01T18:02:23.641Z,100943.81
2022-08-01T18:04:52.915Z,100944.06
2022-08-01T18:08:01.792Z,100944.41
2022-08-01T18:10:11.911Z,100943.88
2022-08-01T18:12:39.860Z,100939.69
2022-08-01T18:15:08.397Z,100936.50
2022-08-01T18:17:36.396Z,100934.97
2022-08-01T18:20:04.740Z,100940.66
2022-08-01T18:22:34.208Z,100936.53
2022-08-01T18:25:08.704Z,100925.13
2022-08-01T18:28:23.518Z,100935.34
2022-08-01T18:30:24.952Z,100934.72
2022-08-01T18:32:52.885Z,100930.41
2022-08-01T18:35:20.957Z,100935.19
2022-08-01T18:37:55.312Z,100930.97
2022-08-01T18:40:23.490Z,100927.72
2022-08-01T18:42:51.514Z,100936.06
2022-08-01T18:45:19.450Z,100933.69
2022-08-01T18:47:48.381Z,100941.25
2022-08-01T18:50:16.290Z,100949.66
2022-08-01T18:52:44.838Z,100950.00
2022-08-01T18:55:14.022Z,100953.06
2022-08-01T18:57:42.742Z,100945.16
2022-08-01T19:00:13.778Z,100959.03
2022-08-01T19:02:42.775Z,100955.81
2022-08-01T19:05:11.356Z,100948.19
2022-08-01T19:08:06.531Z,100957.53
2022-08-01T19:10:28.668Z,100964.34
2022-08-01T19:12:56.471Z,100977.38
2022-08-01T19:15:24.343Z,100979.66
2022-08-01T19:17:52.929Z,100979.00
2022-08-01T19:20:20.823Z,100981.91
2022-08-01T19:22:48.650Z,100991.22
2022-08-01T19:25:16.765Z,100996.88
2022-08-01T19:27:48.565Z,100995.50
2022-08-01T19:30:17.216Z,101001.19
2022-08-01T19:32:47.011Z,101004.97
2022-08-01T19:35:17.339Z,101003.44
2022-08-01T19:37:47.724Z,101005.59
2022-08-01T19:40:27.839Z,101018.50
2022-08-01T19:42:58.017Z,101018.84
2022-08-01T19:45:30.039Z,101025.38
2022-08-01T19:47:58.252Z,101027.34
2022-08-01T19:50:27.070Z,101030.28
2022-08-01T19:52:57.428Z,101039.50
2022-08-01T19:55:26.196Z,101043.34
2022-08-01T19:58:24.137Z,101044.44
2022-08-01T20:00:44.296Z,101051.91
2022-08-01T20:03:15.128Z,101049.47
2022-08-01T20:05:43.609Z,101057.81
2022-08-01T20:08:12.765Z,101053.53
2022-08-01T20:10:41.966Z,101052.91
2022-08-01T20:13:11.683Z,101049.50
2022-08-01T20:15:39.798Z,101055.25
2022-08-01T20:18:09.179Z,101067.13
2022-08-01T20:20:38.776Z,101070.09
2022-08-01T20:23:17.889Z,101073.03
2022-08-01T20:25:49.553Z,101067.91
2022-08-01T20:28:22.431Z,101069.91
2022-08-01T20:30:54.985Z,101072.81
2022-08-01T20:33:24.376Z,101079.41
2022-08-01T20:35:54.156Z,101092.16
2022-08-01T20:38:24.076Z,101085.13
2022-08-01T20:40:54.122Z,101091.56
2022-08-01T20:43:23.646Z,101087.16
2022-08-01T20:45:51.934Z,101091.78
2022-08-01T20:48:20.651Z,101098.19
2022-08-01T20:51:08.256Z,101090.19
2022-08-01T20:53:40.799Z,101094.81
2022-08-01T20:56:13.208Z,101091.41
2022-08-01T20:58:58.401Z,101100.44
2022-08-01T21:01:29.851Z,101094.16
2022-08-01T21:04:12.136Z,101092.41
2022-08-01T21:06:43.807Z,101103.31
2022-08-01T21:09:15.168Z,101102.41
2022-08-01T21:11:50.204Z,101114.91
2022-08-01T21:14:21.256Z,101122.03
2022-08-01T21:17:01.564Z,101121.19
2022-08-01T21:19:31.256Z,101115.84
2022-08-01T21:22:10.490Z,101121.22
2022-08-01T21:24:58.583Z,101123.97
2022-08-01T21:27:33.614Z,101135.59
2022-08-01T21:30:03.694Z,101143.69
2022-08-01T21:32:33.969Z,101144.56
2022-08-01T21:35:02.993Z,101141.00
2022-08-01T21:37:32.282Z,101150.06
2022-08-01T21:40:09.585Z,101147.41
2022-08-01T21:42:39.987Z,101153.66
2022-08-01T21:45:09.782Z,101164.44
2022-08-01T21:47:38.523Z,101163.59
2022-08-01T21:50:09.450Z,101171.66
2022-08-01T21:52:44.752Z,101169.94
2022-08-01T21:55:34.845Z,101161.84
2022-08-01T21:58:19.174Z,101162.75
2022-08-01T22:00:53.229Z,101161.88
2022-08-01T22:03:26.599Z,101158.34
2022-08-01T22:05:55.952Z,101158.47
2022-08-01T22:08:34.762Z,101149.63
2022-08-01T22:11:07.381Z,101159.59
2022-08-01T22:13:35.954Z,101158.81
2022-08-01T22:16:05.338Z,101167.03
2022-08-01T22:18:35.191Z,101160.94
2022-08-01T22:21:04.359Z,101161.06
2022-08-01T22:23:37.419Z,101163.00
2022-08-01T22:26:08.740Z,101163.19
2022-08-01T22:28:38.047Z,101166.09
2022-08-01T22:31:07.759Z,101168.06
2022-08-01T22:33:37.427Z,101168.19
2022-08-01T22:36:07.226Z,101166.59
2022-08-01T22:38:36.709Z,101170.28
2022-08-01T22:41:06.114Z,101172.28
2022-08-01T22:43:40.838Z,101171.50
2022-08-01T22:46:18.303Z,101172.59
2022-08-01T22:48:50.640Z,101165.56
2022-08-01T22:51:44.040Z,101158.56
2022-08-01T22:54:31.044Z,101165.94
2022-08-01T22:57:07.111Z,101178.63
2022-08-01T22:59:47.247Z,101177.00
2022-08-01T23:02:17.324Z,101161.91
2022-08-01T23:04:47.835Z,101160.22
2022-08-01T23:07:20.834Z,101151.34
2022-08-01T23:09:53.972Z,101152.41
2022-08-01T23:12:26.033Z,101151.63
2022-08-01T23:14:55.086Z,101157.13
2022-08-01T23:17:26.441Z,101159.06
2022-08-01T23:19:58.397Z,101169.13
2022-08-01T23:22:31.122Z,101166.63
2022-08-01T23:25:05.009Z,101160.56
2022-08-01T23:27:51.539Z,101158.09
2022-08-01T23:30:26.053Z,101177.97
2022-08-01T23:32:53.985Z,101171.00
2022-08-01T23:35:22.446Z,101160.34
2022-08-01T23:37:51.388Z,101168.56
2022-08-01T23:40:24.848Z,101168.72
2022-08-01T23:42:54.703Z,101168.81
2022-08-01T23:45:23.318Z,101160.88
2022-08-01T23:47:51.372Z,101152.94
2022-08-01T23:50:19.495Z,101157.53
2022-08-01T23:52:51.154Z,101157.69
2022-08-01T23:55:24.468Z,101149.75
2022-08-01T23:58:06.793Z,101145.47
